createdAt,value
2018-11-26T00:00:36.375Z,20.40
2018-11-26T00:03:08.954Z,17.70
2018-11-26T00:05:38.034Z,17.10
2018-11-26T00:08:07.817Z,18.90
2018-11-26T00:10:47.508Z,15.17
2018-11-26T00:13:15.612Z,14.00
2018-11-26T00:15:43.730Z,15.00
2018-11-26T00:18:11.853Z,13.03
2018-11-26T00:20:39.989Z,13.70
2018-11-26T00:23:08.123Z,13.17
2018-11-26T00:25:36.349Z,12.93
2018-11-26T00:28:04.505Z,12.80
2018-11-26T00:30:33.630Z,11.83
2018-11-26T00:33:01.741Z,10.63
2018-11-26T00:35:29.854Z,10.73
2018-11-26T00:37:57.980Z,8.70
2018-11-26T00:40:26.078Z,8.87
2018-11-26T00:42:54.205Z,9.70
2018-11-26T00:45:22.304Z,9.30
2018-11-26T00:47:50.431Z,8.20
2018-11-26T00:50:18.538Z,8.37
2018-11-26T00:52:46.645Z,8.60
2018-11-26T00:55:14.766Z,9.13
2018-11-26T00:57:42.888Z,9.40
2018-11-26T01:00:12.076Z,8.63
2018-11-26T01:02:40.197Z,9.50
2018-11-26T01:05:10.174Z,9.33
2018-11-26T01:07:38.290Z,7.67
2018-11-26T01:10:06.404Z,8.00
2018-11-26T01:12:34.517Z,7.53
2018-11-26T01:15:02.628Z,6.53
2018-11-26T01:17:30.757Z,7.90
2018-11-26T01:19:58.877Z,8.10
2018-11-26T01:22:27.046Z,8.50
2018-11-26T01:24:55.138Z,9.00
2018-11-26T01:27:23.263Z,9.13
2018-11-26T01:29:54.561Z,8.60
2018-11-26T01:32:22.722Z,9.60
2018-11-26T01:34:50.884Z,9.37
2018-11-26T01:37:19.017Z,10.03
2018-11-26T01:39:47.164Z,11.40
2018-11-26T01:42:15.301Z,10.90
2018-11-26T01:44:43.441Z,10.63
2018-11-26T01:47:11.573Z,10.60
2018-11-26T01:49:39.733Z,12.40
2018-11-26T01:52:07.871Z,10.33
2018-11-26T01:54:36.025Z,11.13
2018-11-26T01:57:04.158Z,10.83
2018-11-26T01:59:32.333Z,10.20
2018-11-26T02:02:00.497Z,10.40
2018-11-26T02:04:28.659Z,10.60
2018-11-26T02:06:56.792Z,10.17
2018-11-26T02:09:24.934Z,9.07
2018-11-26T02:11:53.052Z,9.43
2018-11-26T02:14:21.208Z,9.40
2018-11-26T02:16:49.335Z,7.70
2018-11-26T02:19:17.533Z,7.97
2018-11-26T02:21:45.674Z,8.67
2018-11-26T02:24:13.817Z,7.73
2018-11-26T02:26:41.954Z,7.83
2018-11-26T02:29:10.088Z,7.97
2018-11-26T02:31:38.249Z,8.90
2018-11-26T02:34:06.388Z,9.93
2018-11-26T02:36:34.525Z,9.97
2018-11-26T02:39:02.642Z,9.87
2018-11-26T02:41:30.757Z,10.90
2018-11-26T02:43:58.902Z,11.10
2018-11-26T02:46:27.005Z,10.77
2018-11-26T02:48:55.109Z,9.83
2018-11-26T02:51:23.217Z,9.57
2018-11-26T02:53:51.333Z,10.17
2018-11-26T02:56:19.441Z,9.80
2018-11-26T02:58:47.551Z,8.17
2018-11-26T03:01:15.713Z,10.00
2018-11-26T03:03:43.813Z,9.43
2018-11-26T03:06:11.931Z,10.30
2018-11-26T03:08:40.041Z,10.13
2018-11-26T03:11:08.140Z,9.83
2018-11-26T03:13:36.269Z,10.23
2018-11-26T03:16:04.385Z,10.20
2018-11-26T03:18:32.497Z,10.90
2018-11-26T03:21:00.611Z,13.80
2018-11-26T03:23:28.716Z,12.60
2018-11-26T03:25:56.837Z,15.10
2018-11-26T03:28:28.460Z,11.30
2018-11-26T03:30:56.598Z,13.67
2018-11-26T03:33:24.698Z,12.13
2018-11-26T03:35:52.821Z,15.97
2018-11-26T03:38:33.741Z,14.50
2018-11-26T03:41:01.868Z,14.73
2018-11-26T03:43:29.986Z,15.87
2018-11-26T03:45:58.095Z,15.73
2018-11-26T03:48:28.262Z,14.93
2018-11-26T03:50:56.402Z,16.23
2018-11-26T03:53:24.517Z,14.27
2018-11-26T03:55:52.642Z,16.60
2018-11-26T03:58:20.741Z,17.63
2018-11-26T04:00:52.861Z,18.30
2018-11-26T04:03:21.001Z,16.37
2018-11-26T04:05:49.173Z,16.37
2018-11-26T04:08:17.289Z,16.73
2018-11-26T04:10:47.437Z,16.23
2018-11-26T04:13:15.545Z,17.93
2018-11-26T04:15:43.680Z,16.73
2018-11-26T04:18:11.798Z,16.13
2018-11-26T04:20:39.925Z,15.80
2018-11-26T04:23:08.042Z,17.73
2018-11-26T04:25:36.184Z,18.70
2018-11-26T04:28:04.289Z,19.30
2018-11-26T04:30:32.436Z,19.00
2018-11-26T04:33:00.553Z,20.00
2018-11-26T04:35:28.681Z,19.73
2018-11-26T04:37:56.790Z,19.00
2018-11-26T04:40:24.893Z,16.90
2018-11-26T04:42:53.070Z,18.27
2018-11-26T04:45:21.192Z,15.30
2018-11-26T04:47:49.305Z,16.30
2018-11-26T04:50:17.448Z,16.30
2018-11-26T04:52:45.581Z,17.43
2018-11-26T04:55:13.806Z,14.53
2018-11-26T04:57:42.772Z,18.00
2018-11-26T05:00:12.159Z,16.27
2018-11-26T05:02:40.285Z,16.73
2018-11-26T05:05:09.390Z,16.03
2018-11-26T05:07:37.537Z,16.40
2018-11-26T05:10:07.515Z,17.70
2018-11-26T05:12:35.625Z,18.53
2018-11-26T05:15:03.749Z,16.27
2018-11-26T05:17:31.853Z,15.33
2018-11-26T05:19:59.973Z,15.60
2018-11-26T05:22:28.077Z,16.20
2018-11-26T05:24:56.297Z,13.77
2018-11-26T05:27:24.405Z,15.27
2018-11-26T05:29:52.579Z,15.63
2018-11-26T05:32:20.777Z,17.07
2018-11-26T05:34:48.909Z,15.63
2018-11-26T05:37:17.090Z,17.53
2018-11-26T05:39:45.213Z,16.30
2018-11-26T05:42:13.359Z,15.83
2018-11-26T05:44:41.490Z,15.40
2018-11-26T05:47:09.643Z,14.70
2018-11-26T05:49:37.781Z,12.83
2018-11-26T05:52:06.217Z,14.43
2018-11-26T05:54:34.357Z,13.77
2018-11-26T05:57:02.507Z,13.60
2018-11-26T05:59:30.653Z,13.30
2018-11-26T06:01:58.800Z,12.77
2018-11-26T06:04:26.945Z,13.13
2018-11-26T06:06:55.097Z,12.70
2018-11-26T06:09:23.233Z,12.87
2018-11-26T06:11:52.389Z,13.80
2018-11-26T06:14:20.546Z,13.30
2018-11-26T06:16:53.705Z,13.00
2018-11-26T06:19:16.838Z,13.30
2018-11-26T06:21:44.989Z,13.90
2018-11-26T06:24:13.133Z,14.33
2018-11-26T06:26:58.025Z,13.00
2018-11-26T06:29:26.174Z,13.97
2018-11-26T06:31:54.334Z,12.73
2018-11-26T06:34:22.461Z,12.70
2018-11-26T06:36:50.605Z,12.77
2018-11-26T06:39:18.754Z,11.60
2018-11-26T06:41:46.901Z,14.83
2018-11-26T06:44:15.034Z,11.43
2018-11-26T06:46:43.157Z,15.30
2018-11-26T06:49:11.310Z,13.17
2018-11-26T06:51:39.449Z,12.40
2018-11-26T06:54:07.585Z,14.00
2018-11-26T06:56:39.102Z,16.03
2018-11-26T06:59:07.240Z,14.67
2018-11-26T07:01:35.389Z,14.93
2018-11-26T07:04:03.521Z,15.10
2018-11-26T07:06:31.682Z,15.10
2018-11-26T07:08:59.809Z,18.00
2018-11-26T07:11:27.953Z,15.57
2018-11-26T07:13:56.080Z,17.33
2018-11-26T07:16:24.230Z,16.70
2018-11-26T07:18:52.365Z,16.90
2018-11-26T07:21:20.525Z,16.50
2018-11-26T07:23:48.690Z,16.07
2018-11-26T07:26:16.843Z,18.27
2018-11-26T07:28:44.977Z,15.00
2018-11-26T07:31:13.150Z,14.90
2018-11-26T07:33:41.285Z,19.27
2018-11-26T07:36:11.433Z,16.73
2018-11-26T07:38:37.577Z,18.00
2018-11-26T07:41:06.141Z,18.40
2018-11-26T07:43:34.338Z,20.67
2018-11-26T07:46:02.477Z,18.00
2018-11-26T07:48:30.622Z,21.40
2018-11-26T07:50:58.770Z,19.53
2018-11-26T07:53:26.917Z,19.93
2018-11-26T07:55:55.053Z,20.00
2018-11-26T07:58:23.190Z,17.77
2018-11-26T08:00:51.341Z,18.70
2018-11-26T08:03:19.504Z,22.50
2018-11-26T08:05:47.646Z,20.13
2018-11-26T08:08:15.828Z,19.53
2018-11-26T08:10:44.047Z,17.60
2018-11-26T08:13:12.193Z,18.23
2018-11-26T08:15:44.052Z,16.10
2018-11-26T08:18:12.187Z,20.47
2018-11-26T08:20:40.334Z,20.40
2018-11-26T08:23:08.473Z,18.13
2018-11-26T08:25:36.610Z,21.90
2018-11-26T08:28:04.781Z,19.03
2018-11-26T08:30:32.934Z,16.70
2018-11-26T08:33:01.514Z,12.90
2018-11-26T08:35:30.897Z,15.00
2018-11-26T08:38:04.408Z,14.60
2018-11-26T08:40:38.098Z,14.43
2018-11-26T08:43:07.469Z,16.90
2018-11-26T08:47:43.449Z,15.03
2018-11-26T08:50:11.670Z,13.80
2018-11-26T08:52:40.114Z,14.57
2018-11-26T08:55:08.574Z,14.33
2018-11-26T08:57:36.730Z,13.60
2018-11-26T09:00:05.302Z,17.80
2018-11-26T09:02:37.679Z,18.10
2018-11-26T09:05:11.662Z,16.60
2018-11-26T09:07:39.861Z,12.77
2018-11-26T09:10:08.393Z,15.90
2018-11-26T09:12:36.583Z,17.30
2018-11-26T09:15:05.296Z,21.80
2018-11-26T09:17:33.423Z,22.70
2018-11-26T09:20:01.575Z,21.23
2018-11-26T09:22:29.727Z,20.77
2018-11-26T09:24:57.861Z,22.50
2018-11-26T09:27:26.043Z,25.23
2018-11-26T09:29:54.130Z,22.10
2018-11-26T09:32:22.242Z,21.37
2018-11-26T09:34:50.373Z,22.93
2018-11-26T09:37:18.497Z,23.03
2018-11-26T09:39:46.615Z,27.63
2018-11-26T09:42:14.733Z,23.63
2018-11-26T09:44:42.889Z,21.13
2018-11-26T09:47:11.017Z,19.53
2018-11-26T09:49:39.173Z,27.13
2018-11-26T09:52:07.259Z,18.27
2018-11-26T09:54:35.373Z,21.33
2018-11-26T09:57:03.482Z,26.00
2018-11-26T09:59:34.757Z,22.33
2018-11-26T10:02:02.867Z,19.00
2018-11-26T10:04:30.981Z,20.80
2018-11-26T10:06:59.077Z,16.33
2018-11-26T10:09:27.203Z,17.70
2018-11-26T10:11:56.314Z,19.83
2018-11-26T10:14:24.441Z,23.33
2018-11-26T10:16:52.905Z,22.50
2018-11-26T10:19:21.038Z,20.90
2018-11-26T10:21:52.554Z,21.23
2018-11-26T10:24:20.669Z,20.70
2018-11-26T10:26:49.794Z,18.80
2018-11-26T10:29:17.937Z,18.63
2018-11-26T10:31:46.109Z,23.03
2018-11-26T10:34:17.369Z,22.43
2018-11-26T10:36:45.491Z,20.70
2018-11-26T10:39:13.622Z,18.00
2018-11-26T10:41:41.769Z,16.87
2018-11-26T10:44:09.912Z,19.20
2018-11-26T10:46:38.079Z,15.23
2018-11-26T10:49:06.246Z,15.27
2018-11-26T10:51:34.482Z,16.67
2018-11-26T10:54:03.277Z,15.90
2018-11-26T10:56:31.421Z,16.23
2018-11-26T10:59:00.557Z,17.00
2018-11-26T11:01:34.141Z,17.00
2018-11-26T11:04:02.283Z,18.97
2018-11-26T11:06:30.437Z,17.43
2018-11-26T11:08:58.565Z,18.53
2018-11-26T11:11:26.710Z,17.43
2018-11-26T11:13:54.852Z,17.20
2018-11-26T11:16:23.003Z,15.90
2018-11-26T11:18:51.150Z,15.83
2018-11-26T11:21:19.316Z,16.40
2018-11-26T11:23:47.485Z,14.23
2018-11-26T11:26:15.630Z,15.67
2018-11-26T11:28:43.774Z,15.70
2018-11-26T11:31:11.942Z,16.60
2018-11-26T11:33:40.102Z,14.43
2018-11-26T11:36:08.250Z,15.17
2018-11-26T11:38:36.403Z,15.07
2018-11-26T11:41:04.550Z,13.20
2018-11-26T11:43:32.761Z,14.03
2018-11-26T11:46:00.886Z,15.17
2018-11-26T11:48:29.167Z,16.63
2018-11-26T11:50:57.305Z,14.90
2018-11-26T11:53:25.492Z,15.10
2018-11-26T11:55:53.642Z,15.30
2018-11-26T11:58:21.803Z,15.17
2018-11-26T12:00:50.478Z,15.30
2018-11-26T12:03:20.353Z,14.87
2018-11-26T12:05:48.514Z,13.93
2018-11-26T12:08:16.658Z,13.03
2018-11-26T12:10:44.789Z,13.53
2018-11-26T12:13:14.690Z,13.80
2018-11-26T12:15:48.377Z,12.37
2018-11-26T12:18:16.684Z,11.93
2018-11-26T12:20:44.834Z,13.70
2018-11-26T12:23:13.006Z,13.90
2018-11-26T12:25:41.158Z,12.57
2018-11-26T12:28:09.310Z,12.10
2018-11-26T12:30:39.258Z,10.87
2018-11-26T12:33:07.374Z,11.70
2018-11-26T12:35:35.519Z,9.77
2018-11-26T12:38:03.764Z,10.63
2018-11-26T12:40:31.898Z,11.40
2018-11-26T12:43:01.578Z,10.07
2018-11-26T12:45:31.274Z,9.30
2018-11-26T12:47:59.549Z,8.53
2018-11-26T12:50:27.787Z,9.40
2018-11-26T12:52:55.924Z,8.00
2018-11-26T12:55:24.595Z,7.37
2018-11-26T12:57:53.435Z,7.60
2018-11-26T13:00:22.615Z,8.20
2018-11-26T13:02:51.983Z,7.57
2018-11-26T13:05:20.550Z,7.77
2018-11-26T13:07:48.718Z,7.70
2018-11-26T13:10:18.095Z,7.50
2018-11-26T13:12:47.015Z,8.10
2018-11-26T13:15:22.892Z,7.50
2018-11-26T13:17:51.125Z,7.07
2018-11-26T13:20:22.863Z,6.93
2018-11-26T13:22:51.407Z,8.00
2018-11-26T13:25:24.695Z,8.50
2018-11-26T13:27:53.903Z,8.37
2018-11-26T13:30:28.424Z,9.03
2018-11-26T13:32:57.683Z,9.47
2018-11-26T13:35:25.799Z,9.13
2018-11-26T13:37:53.887Z,8.70
2018-11-26T13:40:22.150Z,8.10
2018-11-26T13:42:50.910Z,8.60
2018-11-26T13:45:28.911Z,9.83
2018-11-26T13:47:57.015Z,11.10
2018-11-26T13:50:27.536Z,10.60
2018-11-26T13:52:55.983Z,11.53
2018-11-26T13:55:24.114Z,11.20
2018-11-26T13:57:52.508Z,10.20
2018-11-26T14:00:20.643Z,12.03
2018-11-26T14:02:48.743Z,12.17
2018-11-26T14:05:18.259Z,11.35
2018-11-26T14:07:46.898Z,13.23
2018-11-26T14:10:29.434Z,15.37
2018-11-26T14:13:00.126Z,14.20
2018-11-26T14:15:28.255Z,15.27
2018-11-26T14:17:56.432Z,17.60
2018-11-26T14:20:24.550Z,16.57
2018-11-26T14:22:52.871Z,15.43
2018-11-26T14:25:21.016Z,15.97
2018-11-26T14:27:49.322Z,16.70
2018-11-26T14:30:21.611Z,17.67
2018-11-26T14:32:49.787Z,18.55
2018-11-26T14:35:18.019Z,20.13
2018-11-26T14:37:47.602Z,17.05
2018-11-26T14:40:52.586Z,18.90
2018-11-26T14:43:20.767Z,16.85
2018-11-26T14:45:49.801Z,18.25
2018-11-26T14:48:17.943Z,18.80
2018-11-26T14:50:46.097Z,17.75
2018-11-26T14:53:15.655Z,19.82
2018-11-26T14:55:43.843Z,21.97
2018-11-26T14:58:12.025Z,21.15
2018-11-26T15:00:40.195Z,20.70
2018-11-26T15:03:08.635Z,19.73
2018-11-26T15:05:36.795Z,21.83
2018-11-26T15:08:04.975Z,21.93
2018-11-26T15:10:33.119Z,18.50
2018-11-26T15:13:01.308Z,17.37
2018-11-26T15:15:29.462Z,17.80
2018-11-26T15:17:57.626Z,20.30
2018-11-26T15:20:28.496Z,19.37
2018-11-26T15:22:57.770Z,18.57
2018-11-26T15:25:27.839Z,19.90
2018-11-26T15:27:59.136Z,16.37
2018-11-26T15:30:27.274Z,19.73
2018-11-26T15:32:55.404Z,18.73
2018-11-26T15:35:24.305Z,17.20
2018-11-26T15:37:52.435Z,21.03
2018-11-26T15:40:21.306Z,21.45
2018-11-26T15:42:49.564Z,20.70
2018-11-26T15:45:18.682Z,22.20
2018-11-26T15:47:47.027Z,21.63
2018-11-26T15:50:15.150Z,20.93
2018-11-26T15:52:43.335Z,23.45
2018-11-26T15:55:12.606Z,23.20
2018-11-26T15:57:40.760Z,25.37
2018-11-26T16:00:11.818Z,26.83
2018-11-26T16:02:40.010Z,24.98
2018-11-26T16:05:10.716Z,25.57
2018-11-26T16:07:38.836Z,24.53
2018-11-26T16:10:12.303Z,24.95
2018-11-26T16:12:40.692Z,21.73
2018-11-26T16:15:17.346Z,25.40
2018-11-26T16:17:45.491Z,23.42
2018-11-26T16:20:16.993Z,31.30
2018-11-26T16:22:45.132Z,30.30
2018-11-26T16:25:17.475Z,31.80
2018-11-26T16:27:45.642Z,28.38
2018-11-26T16:30:14.900Z,25.35
2018-11-26T16:32:46.443Z,23.55
2018-11-26T16:35:17.906Z,22.52
2018-11-26T16:37:46.050Z,26.80
2018-11-26T16:40:15.276Z,20.55
2018-11-26T16:42:43.416Z,21.82
2018-11-26T16:45:17.686Z,20.60
2018-11-26T16:47:49.306Z,17.05
2018-11-26T16:50:22.509Z,18.02
2018-11-26T16:52:54.418Z,22.60
2018-11-26T16:55:26.262Z,17.83
2018-11-26T16:57:54.413Z,19.70
2018-11-26T17:00:26.670Z,16.93
2018-11-26T17:02:56.074Z,19.20
2018-11-26T17:05:32.378Z,15.40
2018-11-26T17:08:00.531Z,18.83
2018-11-26T17:10:29.183Z,18.43
2018-11-26T17:12:57.318Z,17.87
2018-11-26T17:15:25.468Z,19.20
2018-11-26T17:17:53.594Z,20.03
2018-11-26T17:20:22.262Z,14.70
2018-11-26T17:22:50.406Z,18.23
2018-11-26T17:25:18.570Z,20.92
2018-11-26T17:27:46.879Z,17.50
2018-11-26T17:30:17.155Z,19.17
2018-11-26T17:32:46.017Z,19.70
2018-11-26T17:35:15.031Z,19.75
2018-11-26T17:37:43.247Z,19.30
2018-11-26T17:40:20.511Z,20.92
2018-11-26T17:42:48.774Z,19.00
2018-11-26T17:45:17.459Z,21.00
2018-11-26T17:47:46.831Z,19.60
2018-11-26T17:50:46.035Z,20.33
2018-11-26T17:53:19.231Z,18.43
2018-11-26T17:55:51.779Z,19.13
2018-11-26T17:58:21.203Z,16.37
2018-11-26T18:00:52.563Z,18.00
2018-11-26T18:03:20.682Z,18.70
2018-11-26T18:05:48.811Z,16.63
2018-11-26T18:08:17.726Z,16.30
2018-11-26T18:10:45.866Z,13.40
2018-11-26T18:13:13.986Z,12.40
2018-11-26T18:15:42.119Z,14.90
2018-11-26T18:18:11.995Z,16.60
2018-11-26T18:20:40.138Z,16.90
2018-11-26T18:23:08.986Z,14.50
2018-11-26T18:25:37.111Z,17.03
2018-11-26T18:28:08.073Z,17.30
2018-11-26T18:30:41.512Z,14.35
2018-11-26T18:33:09.650Z,16.80
2018-11-26T18:35:38.051Z,17.12
2018-11-26T18:38:06.958Z,19.10
2018-11-26T18:40:36.370Z,17.40
2018-11-26T18:43:04.949Z,17.07
2018-11-26T18:45:33.086Z,14.83
2018-11-26T18:48:01.236Z,17.40
2018-11-26T18:50:29.382Z,14.90
2018-11-26T18:52:57.547Z,15.93
2018-11-26T18:55:25.968Z,18.90
2018-11-26T18:57:54.114Z,18.23
2018-11-26T19:00:27.596Z,20.88
2018-11-26T19:02:56.375Z,19.57
2018-11-26T19:05:24.562Z,22.10
2018-11-26T19:07:52.721Z,22.70
2018-11-26T19:10:29.971Z,20.43
2018-11-26T19:13:01.712Z,23.75
2018-11-26T19:15:33.326Z,21.90
2018-11-26T19:18:19.107Z,23.40
2018-11-26T19:20:47.345Z,22.75
2018-11-26T19:23:15.523Z,21.85
2018-11-26T19:25:44.064Z,20.80
2018-11-26T19:28:12.216Z,21.47
2018-11-26T19:30:40.375Z,21.20
2018-11-26T19:33:09.395Z,20.20
2018-11-26T19:35:37.598Z,18.83
2018-11-26T19:38:06.748Z,20.50
2018-11-26T19:40:35.723Z,19.77
2018-11-26T19:43:03.852Z,18.83
2018-11-26T19:45:31.999Z,18.50
2018-11-26T19:48:00.127Z,19.00
2018-11-26T19:50:28.250Z,16.57
2018-11-26T19:52:56.386Z,17.70
2018-11-26T19:55:25.588Z,18.73
2018-11-26T19:57:55.003Z,19.20
2018-11-26T20:00:26.136Z,18.67
2018-11-26T20:02:58.248Z,16.50
2018-11-26T20:05:44.874Z,16.30
2018-11-26T20:08:13.003Z,17.80
2018-11-26T20:10:41.156Z,17.10
2018-11-26T20:13:09.331Z,19.60
2018-11-26T20:15:37.487Z,17.30
2018-11-26T20:18:06.190Z,17.63
2018-11-26T20:20:34.296Z,18.27
2018-11-26T20:23:02.420Z,16.87
2018-11-26T20:25:30.519Z,17.07
2018-11-26T20:27:58.663Z,17.37
2018-11-26T20:30:26.806Z,19.57
2018-11-26T20:32:54.962Z,19.67
2018-11-26T20:35:23.346Z,21.00
2018-11-26T20:37:51.632Z,21.70
2018-11-26T20:40:19.782Z,23.60
2018-11-26T20:42:50.811Z,22.37
2018-11-26T20:45:19.154Z,23.20
2018-11-26T20:47:48.222Z,22.43
2018-11-26T20:50:18.798Z,22.77
2018-11-26T20:52:46.963Z,23.07
2018-11-26T20:55:19.879Z,23.60
2018-11-26T20:57:48.927Z,22.97
2018-11-26T21:00:21.090Z,21.63
2018-11-26T21:02:50.805Z,23.90
2018-11-26T21:05:18.921Z,23.13
2018-11-26T21:07:47.079Z,22.83
2018-11-26T21:10:15.770Z,20.90
2018-11-26T21:12:43.899Z,24.00
2018-11-26T21:15:15.080Z,21.10
2018-11-26T21:17:44.766Z,24.20
2018-11-26T21:20:46.050Z,21.13
2018-11-26T21:23:16.127Z,19.27
2018-11-26T21:25:44.251Z,20.53
2018-11-26T21:28:12.431Z,19.67
2018-11-26T21:30:40.555Z,19.37
2018-11-26T21:33:08.694Z,20.77
2018-11-26T21:35:36.803Z,18.93
2018-11-26T21:38:06.082Z,19.20
2018-11-26T21:40:34.198Z,21.10
2018-11-26T21:43:02.356Z,19.00
2018-11-26T21:45:32.760Z,15.57
2018-11-26T21:48:00.854Z,16.67
2018-11-26T21:50:28.955Z,17.27
2018-11-26T21:52:57.042Z,17.50
2018-11-26T21:55:25.145Z,18.90
2018-11-26T21:57:53.235Z,18.10
2018-11-26T22:00:27.638Z,18.77
2018-11-26T22:02:56.212Z,19.70
2018-11-26T22:05:24.343Z,18.43
2018-11-26T22:07:52.434Z,16.87
2018-11-26T22:10:21.675Z,17.37
2018-11-26T22:12:51.784Z,17.80
2018-11-26T22:15:19.898Z,16.83
2018-11-26T22:17:47.987Z,18.33
2018-11-26T22:20:29.370Z,18.53
2018-11-26T22:22:57.476Z,19.23
2018-11-26T22:25:25.590Z,19.03
2018-11-26T22:27:54.130Z,21.23
2018-11-26T22:30:23.446Z,22.50
2018-11-26T22:32:51.567Z,22.10
2018-11-26T22:35:19.719Z,20.63
2018-11-26T22:37:47.847Z,26.10
2018-11-26T22:40:17.980Z,29.73
2018-11-26T22:42:46.190Z,24.80
2018-11-26T22:45:16.369Z,22.98
2018-11-26T22:47:46.194Z,25.00
2018-11-26T22:50:15.026Z,22.53
2018-11-26T22:52:43.246Z,24.23
2018-11-26T22:55:12.551Z,22.90
2018-11-26T22:57:40.963Z,22.20
2018-11-26T23:00:22.054Z,21.70
2018-11-26T23:02:50.583Z,19.83
2018-11-26T23:05:18.714Z,20.53
2018-11-26T23:07:46.841Z,18.37
2018-11-26T23:10:15.011Z,17.98
2018-11-26T23:12:43.175Z,16.97
2018-11-26T23:15:12.586Z,16.67
2018-11-26T23:17:41.038Z,15.17
2018-11-26T23:20:14.387Z,16.53
2018-11-26T23:22:42.559Z,18.17
2018-11-26T23:25:15.716Z,16.13
2018-11-26T23:27:43.886Z,16.77
2018-11-26T23:30:18.135Z,13.83
2018-11-26T23:32:49.352Z,15.23
2018-11-26T23:35:17.542Z,15.83
2018-11-26T23:37:45.670Z,15.40
2018-11-26T23:40:13.956Z,14.23
2018-11-26T23:42:42.102Z,15.13
2018-11-26T23:45:12.346Z,13.17
2018-11-26T23:47:40.498Z,14.60
2018-11-26T23:50:10.987Z,13.37
2018-11-26T23:52:39.475Z,15.07
2018-11-26T23:55:12.786Z,15.20
2018-11-26T23:57:40.995Z,14.30
